Time;durP1;ratioP1;P1;durP2;ratioP2;P2;SDS_P1;SDS_P2;PMS_P1;PMS_P2;Temp;Humidity;BMP_temperature;BMP_pressure;BME280_temperature;BME280_humidity;BME280_pressure;Samples;Min_cycle;Max_cycle;Signal;HPM_P1;HPM_P2
2022/07/23 00:02:24;;;;;;;34.50;24.30;;;24.60;65.70;;;;;;7367812;19;20026;-76
2022/07/23 00:04:52;;;;;;;39.22;23.05;;;24.60;65.90;;;;;;7365276;19;20010;-76
2022/07/23 00:07:21;;;;;;;35.25;23.23;;;24.50;65.90;;;;;;7366041;19;20026;-76
2022/07/23 00:09:50;;;;;;;32.75;24.15;;;24.50;65.60;;;;;;7364841;19;20023;-76
2022/07/23 00:12:18;;;;;;;39.33;24.05;;;24.50;65.50;;;;;;7390370;19;20037;-76
2022/07/23 00:14:50;;;;;;;34.65;24.92;;;24.50;65.70;;;;;;7365227;19;20626;-75
2022/07/23 00:17:19;;;;;;;32.65;23.00;;;24.50;65.80;;;;;;7366619;19;20440;-75
2022/07/23 00:19:47;;;;;;;31.85;22.73;;;24.40;66.10;;;;;;7365329;19;20066;-76
2022/07/23 00:22:16;;;;;;;33.25;24.02;;;24.40;66.00;;;;;;7364386;19;20021;-76
2022/07/23 00:24:45;;;;;;;35.35;24.23;;;24.40;66.10;;;;;;7365308;19;20086;-76
2022/07/23 00:27:14;;;;;;;30.40;23.25;;;24.40;66.40;;;;;;7386031;19;20018;-76
2022/07/23 00:29:42;;;;;;;37.10;24.55;;;24.40;66.50;;;;;;7364662;19;20102;-75
2022/07/23 00:32:14;;;;;;;34.85;24.67;;;24.40;66.80;;;;;;7372019;19;20856;-76
2022/07/23 00:34:42;;;;;;;;;;;24.40;67.00;;;;;;7370082;19;20106;-76
2022/07/23 00:37:11;;;;;;;33.65;23.85;;;24.40;67.20;;;;;;7373830;19;19933;-74
2022/07/23 00:39:39;;;;;;;33.20;24.00;;;24.30;67.20;;;;;;7386045;19;20035;-77
2022/07/23 00:42:08;;;;;;;34.38;25.08;;;24.30;67.50;;;;;;7392470;19;20032;-76
2022/07/23 00:44:37;;;;;;;36.80;25.33;;;24.20;67.40;;;;;;7374192;19;20018;-76
2022/07/23 00:47:06;;;;;;;34.70;25.77;;;24.20;67.60;;;;;;7371840;19;20098;-76
2022/07/23 00:49:37;;;;;;;36.90;24.70;;;24.20;67.80;;;;;;7369855;19;20355;-76
2022/07/23 00:52:07;;;;;;;31.88;23.15;;;24.20;68.00;;;;;;7372219;19;20450;-76
2022/07/23 00:54:35;;;;;;;35.45;24.23;;;24.20;68.00;;;;;;7392264;19;20095;-76
2022/07/23 00:57:04;;;;;;;37.00;25.80;;;24.30;67.90;;;;;;7370560;19;20039;-76
2022/07/23 00:59:33;;;;;;;34.35;24.33;;;24.30;67.70;;;;;;7371121;19;20014;-76
2022/07/23 01:02:01;;;;;;;34.83;24.13;;;24.30;67.80;;;;;;7375059;19;20025;-75
2022/07/23 01:04:30;;;;;;;28.70;22.60;;;24.40;67.70;;;;;;7376828;19;20018;-75
2022/07/23 01:07:02;;;;;;;32.03;23.00;;;24.40;67.50;;;;;;7374279;19;20026;-76
2022/07/23 01:09:31;;;;;;;28.00;21.67;;;24.40;67.50;;;;;;7392693;19;20047;-75
2022/07/23 01:12:01;;;;;;;31.02;21.15;;;24.40;68.30;;;;;;7377042;19;20021;-75
2022/07/23 01:14:29;;;;;;;29.90;21.65;;;24.40;67.60;;;;;;7375570;19;20099;-75
2022/07/23 01:16:58;;;;;;;29.63;22.30;;;24.40;67.30;;;;;;7376427;19;20348;-75
2022/07/23 01:19:27;;;;;;;30.10;20.92;;;24.40;67.30;;;;;;7375501;19;20999;-75
2022/07/23 01:21:57;;;;;;;31.23;21.73;;;24.30;67.50;;;;;;7374530;19;20023;-75
2022/07/23 01:24:28;;;;;;;30.23;23.00;;;24.30;67.30;;;;;;7394565;19;20018;-75
2022/07/23 01:26:57;;;;;;;;;;;24.30;67.50;;;;;;7376699;19;20062;-75
2022/07/23 01:29:26;;;;;;;34.53;24.73;;;24.30;67.60;;;;;;7373688;19;19942;-75
2022/07/23 01:31:55;;;;;;;34.80;23.85;;;24.30;67.50;;;;;;7372569;19;20479;-75
2022/07/23 01:34:23;;;;;;;33.05;23.88;;;24.30;68.50;;;;;;7371906;19;20022;-75
2022/07/23 01:36:52;;;;;;;30.75;22.80;;;24.30;67.60;;;;;;7370787;19;20022;-75
2022/07/23 01:39:21;;;;;;;29.88;22.15;;;24.30;67.60;;;;;;7393202;19;20018;-75
2022/07/23 01:41:52;;;;;;;30.75;22.75;;;24.40;67.50;;;;;;7373253;19;20366;-75
2022/07/23 01:44:21;;;;;;;33.28;23.38;;;24.30;67.30;;;;;;7373748;19;20595;-75
2022/07/23 01:46:50;;;;;;;33.30;23.67;;;24.40;67.40;;;;;;7373013;19;20036;-75
2022/07/23 01:49:18;;;;;;;41.35;26.52;;;24.40;67.30;;;;;;7376633;19;20006;-74
2022/07/23 01:54:31;;;;;;;37.05;25.00;;;24.30;67.50;;;;;;7393629;19;20022;-75
2022/07/23 01:57:03;;;;;;;35.22;25.33;;;24.30;67.50;;;;;;7373215;19;20011;-75
2022/07/23 01:59:32;;;;;;;39.97;26.13;;;24.30;67.70;;;;;;7373164;19;20081;-75
2022/07/23 02:02:01;;;;;;;37.45;26.27;;;24.30;67.70;;;;;;7373837;19;20442;-75
2022/07/23 02:04:29;;;;;;;33.20;24.70;;;24.20;67.60;;;;;;7376813;19;20624;-76
2022/07/23 02:06:58;;;;;;;35.22;26.35;;;24.20;68.00;;;;;;7371465;19;20434;-76
2022/07/23 02:09:27;;;;;;;41.72;26.38;;;24.10;67.80;;;;;;7391813;19;20119;-75
2022/07/23 02:11:56;;;;;;;37.78;26.17;;;24.10;67.80;;;;;;7369577;19;20014;-75
2022/07/23 02:14:27;;;;;;;36.70;24.38;;;24.10;67.80;;;;;;7371818;19;20078;-76
2022/07/23 02:16:56;;;;;;;33.03;23.67;;;24.00;67.80;;;;;;7373686;19;20469;-76
2022/07/23 02:19:25;;;;;;;35.65;23.48;;;24.10;68.10;;;;;;7374251;19;20126;-75
2022/07/23 02:21:54;;;;;;;31.98;22.77;;;24.20;68.10;;;;;;7368690;19;20022;-76
2022/07/23 02:24:23;;;;;;;33.00;21.73;;;24.20;68.00;;;;;;7395222;19;20022;-76
2022/07/23 02:26:52;;;;;;;33.92;22.55;;;24.20;68.00;;;;;;7373493;19;20445;-76
2022/07/23 02:29:20;;;;;;;38.53;22.30;;;24.20;68.10;;;;;;7371827;19;20093;-76
2022/07/23 02:31:52;;;;;;;36.55;23.30;;;24.30;68.00;;;;;;7371746;19;20021;-76
2022/07/23 02:34:21;;;;;;;33.40;23.23;;;24.30;68.00;;;;;;7373085;19;20015;-76
2022/07/23 02:36:49;;;;;;;39.08;24.85;;;24.30;68.00;;;;;;7373546;19;20106;-76
2022/07/23 02:39:18;;;;;;;35.35;22.90;;;24.30;67.80;;;;;;7395855;19;20025;-76
2022/07/23 02:41:47;;;;;;;35.28;23.77;;;24.30;67.80;;;;;;7372672;19;20082;-75
2022/07/23 02:44:15;;;;;;;38.15;23.88;;;24.40;67.60;;;;;;7374737;19;20106;-75
2022/07/23 02:46:44;;;;;;;37.92;24.13;;;24.30;67.60;;;;;;7373166;19;20033;-75
2022/07/23 02:49:16;;;;;;;37.33;22.38;;;24.30;67.30;;;;;;7373708;19;20021;-76
2022/07/23 02:51:44;;;;;;;41.35;24.60;;;24.20;67.50;;;;;;7374669;19;20078;-75
2022/07/23 02:54:13;;;;;;;37.25;23.17;;;24.30;67.60;;;;;;7395786;19;20118;-75
2022/07/23 02:56:42;;;;;;;39.33;23.67;;;24.20;67.80;;;;;;7374171;19;20861;-75
2022/07/23 02:59:11;;;;;;;36.15;24.60;;;24.30;67.90;;;;;;7374897;19;20022;-75
2022/07/23 03:01:40;;;;;;;48.40;31.33;;;24.30;67.80;;;;;;7373547;19;20019;-75
2022/07/23 03:04:09;;;;;;;44.30;28.85;;;24.30;67.70;;;;;;7372329;19;20014;-75
2022/07/23 03:06:40;;;;;;;42.83;28.98;;;24.20;67.80;;;;;;7395538;19;20655;-75
2022/07/23 03:09:09;;;;;;;49.50;31.58;;;24.20;68.10;;;;;;7369908;19;20090;-75
2022/07/23 03:11:38;;;;;;;40.13;26.67;;;24.20;68.10;;;;;;7370916;19;20188;-75
2022/07/23 03:14:07;;;;;;;38.08;24.38;;;24.10;68.00;;;;;;7370904;19;20643;-76
2022/07/23 03:16:36;;;;;;;36.05;24.77;;;24.20;68.10;;;;;;7372188;19;20015;-75
2022/07/23 03:19:04;;;;;;;32.65;23.73;;;24.20;68.10;;;;;;7373676;19;20121;-75
2022/07/23 03:21:33;;;;;;;41.80;26.58;;;24.20;68.20;;;;;;7394407;19;20023;-75
2022/07/23 03:24:05;;;;;;;38.10;26.33;;;24.20;68.40;;;;;;7371450;19;20022;-75
2022/07/23 03:26:34;;;;;;;46.80;29.30;;;24.20;68.50;;;;;;7369008;19;20394;-75
2022/07/23 03:29:03;;;;;;;50.55;30.80;;;24.20;68.60;;;;;;7370257;19;20070;-75
2022/07/23 03:31:32;;;;;;;51.30;31.75;;;24.20;68.30;;;;;;7370987;19;20010;-76
2022/07/23 03:34:01;;;;;;;44.45;29.42;;;24.20;68.60;;;;;;7369735;19;20018;-75
2022/07/23 03:36:30;;;;;;;45.67;28.65;;;24.20;68.80;;;;;;7392680;19;20449;-75
2022/07/23 03:38:59;;;;;;;42.08;28.15;;;24.20;68.80;;;;;;7370952;19;20094;-75
2022/07/23 03:41:30;;;;;;;45.28;28.67;;;24.20;68.80;;;;;;7370195;19;20680;-75
2022/07/23 03:43:59;;;;;;;;;;;24.20;68.80;;;;;;7369151;19;20075;-75
2022/07/23 03:46:28;;;;;;;46.13;28.63;;;24.30;68.70;;;;;;7369551;19;19918;-75
2022/07/23 03:48:56;;;;;;;49.25;29.15;;;24.30;68.30;;;;;;7367834;19;20082;-75
2022/07/23 03:51:25;;;;;;;48.80;29.25;;;24.20;68.50;;;;;;7393511;19;20023;-75
2022/07/23 03:53:54;;;;;;;44.10;28.35;;;24.20;68.70;;;;;;7369982;19;20100;-76
2022/07/23 03:56:23;;;;;;;45.00;28.20;;;24.20;69.00;;;;;;7370067;19;20018;-75
2022/07/23 03:58:54;;;;;;;45.00;26.83;;;24.20;69.10;;;;;;7369941;19;20018;-75
2022/07/23 04:01:22;;;;;;;;;;;24.20;69.30;;;;;;7368351;19;20103;-76
2022/07/23 04:03:51;;;;;;;44.33;29.15;;;24.30;69.30;;;;;;7370647;19;19930;-76
2022/07/23 04:06:20;;;;;;;57.45;31.05;;;24.20;68.80;;;;;;7389922;19;20029;-75
2022/07/23 04:08:49;;;;;;;53.20;30.77;;;24.10;68.90;;;;;;7371011;19;20085;-75
2022/07/23 04:11:18;;;;;;;52.72;31.13;;;24.10;69.30;;;;;;7371265;19;20081;-75
2022/07/23 04:13:47;;;;;;;47.22;28.25;;;23.90;69.60;;;;;;7370466;19;20014;-75
2022/07/23 04:16:18;;;;;;;53.28;30.92;;;23.90;70.10;;;;;;7370508;19;20327;-75
2022/07/23 04:18:47;;;;;;;51.70;31.20;;;23.80;70.20;;;;;;7366450;19;20018;-75
2022/07/23 04:21:15;;;;;;;51.70;31.67;;;23.80;70.40;;;;;;7392260;19;20029;-76
2022/07/23 04:23:44;;;;;;;48.85;29.80;;;23.80;70.60;;;;;;7370539;19;20027;-75
2022/07/23 04:26:13;;;;;;;48.75;30.17;;;23.80;70.70;;;;;;7366997;19;20074;-75
2022/07/23 04:28:41;;;;;;;51.17;31.15;;;23.60;70.70;;;;;;7369737;19;20021;-75
2022/07/23 04:31:10;;;;;;;60.10;31.60;;;23.60;70.80;;;;;;7372107;19;20074;-75
2022/07/23 04:33:42;;;;;;;52.25;29.45;;;23.60;70.70;;;;;;7386513;19;20093;-77
2022/07/23 04:36:11;;;;;;;52.35;30.95;;;23.60;70.60;;;;;;7389789;19;20018;-75
2022/07/23 04:38:39;;;;;;;60.95;31.33;;;23.50;70.70;;;;;;7366965;19;20017;-75
2022/07/23 04:41:08;;;;;;;49.20;29.90;;;23.50;70.80;;;;;;7368732;19;20509;-76
2022/07/23 04:43:37;;;;;;;50.67;29.88;;;23.40;71.00;;;;;;7370445;19;20060;-75
2022/07/23 04:46:06;;;;;;;52.33;29.25;;;23.40;71.30;;;;;;7369862;19;20455;-75
2022/07/23 04:48:34;;;;;;;49.75;29.17;;;23.30;71.50;;;;;;7391267;19;20078;-76
2022/07/23 04:51:06;;;;;;;51.13;29.80;;;23.40;71.30;;;;;;7369363;19;20086;-75
2022/07/23 04:53:35;;;;;;;46.65;28.90;;;23.40;71.40;;;;;;7369784;19;20019;-76
2022/07/23 04:56:04;;;;;;;53.45;30.13;;;23.40;71.30;;;;;;7368361;19;20029;-75
2022/07/23 04:58:33;;;;;;;47.88;28.98;;;23.40;71.30;;;;;;7370246;19;20011;-75
2022/07/23 05:01:01;;;;;;;48.13;28.20;;;23.50;71.20;;;;;;7367237;19;20038;-75
2022/07/23 05:03:30;;;;;;;42.80;25.88;;;23.50;70.70;;;;;;7389325;19;20081;-75
2022/07/23 05:05:59;;;;;;;45.38;25.88;;;23.30;70.80;;;;;;7369808;19;20130;-75
2022/07/23 05:08:31;;;;;;;44.17;26.38;;;23.30;70.70;;;;;;7369300;19;20081;-75
2022/07/23 05:11:00;;;;;;;46.53;26.17;;;23.20;70.90;;;;;;7366910;19;20086;-75
2022/07/23 05:13:28;;;;;;;47.25;25.30;;;23.40;70.60;;;;;;7367298;19;20010;-75
2022/07/23 05:15:57;;;;;;;40.58;24.65;;;23.40;70.60;;;;;;7365243;19;20081;-75
2022/07/23 05:18:26;;;;;;;45.70;27.10;;;23.30;70.80;;;;;;7390400;19;20019;-76
2022/07/23 05:20:54;;;;;;;41.17;26.35;;;23.40;70.50;;;;;;7376493;19;20392;-76
2022/07/23 05:23:23;;;;;;;42.22;26.80;;;23.40;70.50;;;;;;7376169;19;20015;-75
2022/07/23 05:25:54;;;;;;;47.05;27.10;;;23.50;70.20;;;;;;7376851;19;20010;-76
2022/07/23 05:28:23;;;;;;;;;;;23.50;70.20;;;;;;7377445;19;20089;-75
2022/07/23 05:30:52;;;;;;;45.25;27.75;;;23.60;70.40;;;;;;7373411;19;20288;-76
2022/07/23 05:33:21;;;;;;;46.60;26.55;;;23.40;70.10;;;;;;7397052;19;20082;-76
2022/07/23 05:35:50;;;;;;;45.17;27.77;;;23.50;70.00;;;;;;7375591;19;20070;-75
2022/07/23 05:38:19;;;;;;;41.55;27.08;;;23.60;69.90;;;;;;7374910;19;20746;-75
2022/07/23 05:40:48;;;;;;;48.72;26.92;;;23.60;69.90;;;;;;7375764;19;20010;-75
2022/07/23 05:43:19;;;;;;;48.38;28.45;;;23.50;69.90;;;;;;7372600;19;20079;-75
2022/07/23 05:45:48;;;;;;;41.28;26.98;;;23.50;69.90;;;;;;7375547;19;20086;-76
2022/07/23 05:48:17;;;;;;;47.45;27.83;;;23.40;70.10;;;;;;7395103;19;20022;-76
2022/07/23 05:50:46;;;;;;;42.33;26.42;;;23.50;69.90;;;;;;7373975;19;20896;-75
2022/07/23 05:53:14;;;;;;;43.95;26.45;;;23.40;69.70;;;;;;7373179;19;20752;-75
2022/07/23 05:55:43;;;;;;;43.08;26.23;;;23.40;69.90;;;;;;7374389;19;20014;-75
2022/07/23 05:58:12;;;;;;;39.72;24.08;;;23.30;69.90;;;;;;7376214;19;20019;-76
2022/07/23 06:00:43;;;;;;;35.20;22.95;;;23.40;70.00;;;;;;7378142;19;20037;-77
2022/07/23 06:03:12;;;;;;;;;;;23.50;69.70;;;;;;7395427;19;20411;-76
2022/07/23 06:05:41;;;;;;;41.95;23.60;;;23.50;69.40;;;;;;7372555;19;19925;-76
2022/07/23 06:08:09;;;;;;;38.28;24.10;;;23.50;69.50;;;;;;7373225;19;20010;-76
2022/07/23 06:10:38;;;;;;;42.60;22.98;;;23.50;69.60;;;;;;7368980;19;20022;-76
2022/07/23 06:13:07;;;;;;;42.83;24.13;;;23.60;69.40;;;;;;7370571;19;20027;-76
2022/07/23 06:15:36;;;;;;;43.90;25.08;;;23.50;69.40;;;;;;7390884;19;20023;-76
2022/07/23 06:18:07;;;;;;;46.53;26.60;;;23.60;69.40;;;;;;7371920;19;20024;-76
2022/07/23 06:20:36;;;;;;;;;;;23.60;69.50;;;;;;7373332;19;20025;-76
2022/07/23 06:23:04;;;;;;;52.10;27.40;;;23.80;69.50;;;;;;7372514;19;19925;-76
2022/07/23 06:25:33;;;;;;;52.95;29.38;;;23.70;69.30;;;;;;7373504;19;20078;-76
2022/07/23 06:28:02;;;;;;;55.22;29.45;;;23.60;70.50;;;;;;7371068;19;20027;-76
2022/07/23 06:30:31;;;;;;;71.57;32.83;;;23.60;69.40;;;;;;7391583;19;20026;-75
2022/07/23 06:33:00;;;;;;;68.50;32.17;;;23.50;69.60;;;;;;7370841;19;20015;-75
2022/07/23 06:35:31;;;;;;;66.47;31.50;;;23.50;69.80;;;;;;7371608;19;20749;-75
2022/07/23 06:38:00;;;;;;;71.93;33.95;;;23.30;70.20;;;;;;7372652;19;20102;-75
2022/07/23 06:40:28;;;;;;;74.63;32.72;;;23.40;69.80;;;;;;7369941;19;20025;-76
2022/07/23 06:42:57;;;;;;;81.78;33.50;;;23.40;70.00;;;;;;7368716;19;20125;-75
2022/07/23 06:45:26;;;;;;;68.85;31.48;;;23.50;69.70;;;;;;7393301;19;20109;-75
2022/07/23 06:47:55;;;;;;;74.00;32.97;;;23.50;69.40;;;;;;7370028;19;20019;-75
2022/07/23 06:50:24;;;;;;;73.88;32.40;;;23.60;69.10;;;;;;7372230;19;20086;-75
2022/07/23 06:52:55;;;;;;;76.45;31.67;;;23.50;68.90;;;;;;7370709;19;20078;-76
2022/07/23 06:55:23;;;;;;;;;;;23.50;69.10;;;;;;7373496;19;20093;-76
2022/07/23 06:57:52;;;;;;;69.82;30.90;;;23.70;69.20;;;;;;7371937;19;19982;-76
2022/07/23 07:00:21;;;;;;;61.42;29.90;;;23.80;68.70;;;;;;7392325;19;20074;-76
2022/07/23 07:02:50;;;;;;;64.90;31.55;;;23.80;68.40;;;;;;7369500;19;20014;-76
2022/07/23 07:05:18;;;;;;;64.13;31.63;;;23.80;68.10;;;;;;7371801;19;20732;-76
2022/07/23 07:07:47;;;;;;;57.03;29.92;;;23.80;68.10;;;;;;7367356;19;20118;-77
2022/07/23 07:10:19;;;;;;;67.03;30.15;;;23.80;68.30;;;;;;7371639;19;20114;-75
2022/07/23 07:12:48;;;;;;;70.35;31.63;;;23.70;68.40;;;;;;7371817;19;20022;-76
2022/07/23 07:15:16;;;;;;;71.20;32.28;;;23.70;68.00;;;;;;7391172;19;20015;-76
2022/07/23 07:17:45;;;;;;;71.32;32.30;;;23.50;68.40;;;;;;7372183;19;20132;-76
2022/07/23 07:20:14;;;;;;;67.35;30.77;;;23.50;69.60;;;;;;7371008;19;20065;-76
2022/07/23 07:22:43;;;;;;;69.43;30.30;;;23.30;69.10;;;;;;7368930;19;20392;-76
2022/07/23 07:25:12;;;;;;;66.53;30.95;;;23.40;69.10;;;;;;7369641;19;20106;-76
2022/07/23 07:27:43;;;;;;;61.85;30.80;;;23.50;68.60;;;;;;7377493;19;20434;-77
2022/07/23 07:30:14;;;;;;;63.70;29.65;;;23.20;69.40;;;;;;7390272;19;20473;-75
2022/07/23 07:32:43;;;;;;;58.58;26.77;;;23.40;69.30;;;;;;7371492;19;20014;-76
2022/07/23 07:35:12;;;;;;;63.28;28.50;;;23.60;69.10;;;;;;7370956;19;20025;-76
2022/07/23 07:37:41;;;;;;;73.28;30.02;;;23.60;68.40;;;;;;7370921;19;20122;-76
2022/07/23 07:40:11;;;;;;;61.47;29.30;;;23.70;68.10;;;;;;7369487;19;20817;-76
2022/07/23 07:42:50;;;;;;;57.38;28.52;;;23.60;67.80;;;;;;7379600;19;20113;-76
2022/07/23 07:45:22;;;;;;;70.72;30.27;;;23.70;67.90;;;;;;7392198;19;20018;-76
2022/07/23 07:47:51;;;;;;;70.88;30.85;;;23.70;68.00;;;;;;7371647;19;20022;-75
2022/07/23 07:50:20;;;;;;;67.75;29.38;;;23.60;67.70;;;;;;7371699;19;20105;-77
2022/07/23 07:52:49;;;;;;;63.72;28.98;;;23.60;67.80;;;;;;7372437;19;20610;-76
2022/07/23 07:55:18;;;;;;;61.25;29.60;;;23.70;67.80;;;;;;7367621;19;20051;-77
2022/07/23 07:57:49;;;;;;;70.05;30.67;;;23.70;67.50;;;;;;7369621;19;20022;-77
2022/07/23 08:00:18;;;;;;;;;;;23.70;67.20;;;;;;7391037;19;20014;-77
2022/07/23 08:02:49;;;;;;;66.95;28.83;;;23.90;67.50;;;;;;7369106;19;19950;-77
2022/07/23 08:05:22;;;;;;;78.97;29.57;;;23.90;66.80;;;;;;7370095;19;20056;-77
2022/07/23 08:07:50;;;;;;;73.72;29.65;;;23.80;66.40;;;;;;7370453;19;20022;-75
2022/07/23 08:10:19;;;;;;;55.78;26.63;;;23.80;67.00;;;;;;7369438;19;20323;-76
2022/07/23 08:12:56;;;;;;;67.93;28.60;;;23.80;67.00;;;;;;7371563;19;20098;-76
2022/07/23 08:15:26;;;;;;;61.58;28.80;;;23.80;66.80;;;;;;7390023;19;20038;-75
2022/07/23 08:17:55;;;;;;;64.05;29.25;;;23.90;66.60;;;;;;7366535;19;20014;-75
2022/07/23 08:20:25;;;;;;;68.97;30.05;;;23.90;66.50;;;;;;7369986;19;20461;-75
2022/07/23 08:22:56;;;;;;;74.80;30.85;;;24.00;66.30;;;;;;7370558;19;20038;-76
2022/07/23 08:25:27;;;;;;;54.22;27.38;;;23.90;66.20;;;;;;7370989;19;20533;-75
2022/07/23 08:28:01;;;;;;;52.45;28.23;;;23.90;66.30;;;;;;7368525;19;20483;-76
2022/07/23 08:30:31;;;;;;;53.33;26.77;;;24.00;66.30;;;;;;7391368;19;20094;-76
2022/07/23 08:33:02;;;;;;;54.88;26.50;;;24.00;66.50;;;;;;7368714;19;20445;-75
2022/07/23 08:35:33;;;;;;;54.90;25.10;;;24.00;66.40;;;;;;7367135;19;20014;-76
2022/07/23 08:38:03;;;;;;;49.97;25.98;;;24.20;66.60;;;;;;7369231;19;20082;-76
2022/07/23 08:40:33;;;;;;;40.65;22.55;;;24.30;65.80;;;;;;7370587;19;20928;-76
2022/07/23 08:43:08;;;;;;;43.03;24.15;;;24.40;65.40;;;;;;7370557;19;20074;-76
2022/07/23 08:45:41;;;;;;;44.40;24.73;;;24.50;64.70;;;;;;7390984;19;20618;-76
2022/07/23 08:48:13;;;;;;;42.85;23.98;;;24.40;64.30;;;;;;7369221;19;20042;-75
2022/07/23 08:50:46;;;;;;;40.70;23.48;;;24.30;64.40;;;;;;7369513;19;20036;-75
2022/07/23 08:53:15;;;;;;;37.58;22.35;;;24.20;64.80;;;;;;7370584;19;20078;-76
2022/07/23 08:55:47;;;;;;;40.00;22.70;;;24.20;65.20;;;;;;7373900;19;20011;-76
2022/07/23 08:58:19;;;;;;;37.53;22.08;;;24.20;65.10;;;;;;7373672;19;20025;-76
2022/07/23 09:00:49;;;;;;;39.50;22.35;;;24.40;64.80;;;;;;7373376;19;20372;-76
2022/07/23 09:03:22;;;;;;;40.03;22.10;;;24.40;64.10;;;;;;7397243;19;20019;-75
2022/07/23 09:05:55;;;;;;;45.85;23.25;;;24.40;64.20;;;;;;7375141;19;20102;-75
2022/07/23 09:08:25;;;;;;;39.80;23.27;;;24.50;64.10;;;;;;7374561;19;20102;-76
2022/07/23 09:10:56;;;;;;;40.17;21.63;;;24.40;64.10;;;;;;7374393;19;20074;-75
2022/07/23 09:13:40;;;;;;;44.92;23.42;;;24.40;64.50;;;;;;7373894;19;20444;-75
2022/07/23 09:16:12;;;;;;;47.90;25.67;;;24.30;64.80;;;;;;7373339;19;20015;-75
2022/07/23 09:18:44;;;;;;;55.00;29.45;;;24.30;65.00;;;;;;7379035;19;20075;-75
2022/07/23 09:21:19;;;;;;;42.78;26.00;;;24.30;64.70;;;;;;7393400;19;20010;-75
2022/07/23 09:23:51;;;;;;;56.40;29.60;;;24.30;64.60;;;;;;7371846;19;20089;-75
2022/07/23 09:26:32;;;;;;;45.55;24.77;;;24.20;64.10;;;;;;7373942;19;20469;-76
2022/07/23 09:29:11;;;;;;;45.08;26.63;;;24.20;64.50;;;;;;7371900;19;20018;-76
2022/07/23 09:31:48;;;;;;;48.63;23.27;;;24.20;64.30;;;;;;7372883;19;20488;-75
2022/07/23 09:34:20;;;;;;;42.38;23.98;;;24.20;64.20;;;;;;7369794;19;20353;-75
2022/07/23 09:36:49;;;;;;;43.30;23.90;;;24.50;64.10;;;;;;7373940;19;20010;-76
2022/07/23 09:39:24;;;;;;;39.25;23.35;;;24.70;63.00;;;;;;7396107;19;20334;-75
2022/07/23 09:41:53;;;;;;;38.60;23.25;;;24.80;62.60;;;;;;7373038;19;20113;-75
2022/07/23 09:44:25;;;;;;;41.80;24.27;;;24.80;62.70;;;;;;7371178;19;20023;-76
2022/07/23 09:46:59;;;;;;;43.63;23.90;;;24.70;62.90;;;;;;7370498;19;20035;-76
2022/07/23 09:49:29;;;;;;;43.03;23.15;;;24.80;62.80;;;;;;7372924;19;20022;-76
2022/07/23 09:51:59;;;;;;;37.72;23.17;;;24.90;62.70;;;;;;7368100;19;20018;-76
2022/07/23 09:54:36;;;;;;;51.08;24.08;;;25.10;62.10;;;;;;7396240;19;20078;-76
2022/07/23 09:57:12;;;;;;;45.67;23.45;;;25.10;61.80;;;;;;7370909;19;20019;-76
2022/07/23 09:59:46;;;;;;;40.78;22.98;;;25.20;61.50;;;;;;7371230;19;20472;-76
2022/07/23 10:02:15;;;;;;;37.95;20.60;;;25.20;61.20;;;;;;7370668;19;20018;-75
2022/07/23 10:04:45;;;;;;;36.15;21.95;;;25.20;62.00;;;;;;7368855;19;20118;-76
2022/07/23 10:07:14;;;;;;;35.65;21.60;;;25.20;61.10;;;;;;7372394;19;20435;-76
2022/07/23 10:09:44;;;;;;;36.55;21.35;;;25.20;61.10;;;;;;7371911;19;21761;-75
2022/07/23 10:14:59;;;;;;;30.42;19.95;;;25.50;61.40;;;;;;7370634;19;20481;-75
2022/07/23 10:17:29;;;;;;;31.10;19.77;;;25.70;60.50;;;;;;7370681;19;20042;-75
2022/07/23 10:19:58;;;;;;;32.17;20.80;;;25.80;59.90;;;;;;7371519;19;20014;-75
2022/07/23 10:22:32;;;;;;;35.72;20.55;;;25.90;59.60;;;;;;7371774;19;20729;-76
2022/07/23 10:25:14;;;;;;;32.90;21.98;;;25.90;59.40;;;;;;7371258;19;19999;-74
2022/07/23 10:27:55;;;;;;;36.13;22.48;;;25.70;59.60;;;;;;7370742;19;20386;-75
2022/07/23 10:30:35;;;;;;;40.87;23.80;;;25.40;60.30;;;;;;7392116;19;20592;-75
2022/07/23 10:33:18;;;;;;;40.50;23.58;;;25.40;59.90;;;;;;7371072;19;20077;-75
2022/07/23 10:35:53;;;;;;;36.83;21.83;;;25.40;60.20;;;;;;7371396;19;20014;-74
2022/07/23 10:38:27;;;;;;;40.20;22.63;;;25.40;60.90;;;;;;7371600;19;20098;-74
2022/07/23 10:40:58;;;;;;;40.45;22.85;;;25.50;61.70;;;;;;7371872;19;20022;-75
2022/07/23 10:43:27;;;;;;;35.53;21.63;;;25.50;60.00;;;;;;7370300;19;20011;-75
2022/07/23 10:46:19;;;;;;;37.33;20.85;;;25.60;60.20;;;;;;7372055;19;20098;-76
2022/07/23 10:48:48;;;;;;;31.65;19.38;;;25.70;60.00;;;;;;7369163;19;20018;-75
2022/07/23 10:51:18;;;;;;;38.47;21.83;;;25.90;60.10;;;;;;7391531;19;20014;-75
2022/07/23 10:53:57;;;;;;;42.22;23.60;;;25.90;59.70;;;;;;7370555;19;20463;-75
2022/07/23 10:57:11;;;;;;;34.60;21.95;;;25.90;59.40;;;;;;7367982;19;20015;-74
2022/07/23 11:00:10;;;;;;;34.38;22.10;;;25.90;59.50;;;;;;7368182;19;20014;-73
2022/07/23 11:02:45;;;;;;;39.50;20.92;;;26.00;59.50;;;;;;7369057;19;20129;-74
2022/07/23 11:05:16;;;;;;;37.75;21.92;;;26.10;59.60;;;;;;7370976;19;20053;-74
2022/07/23 11:08:17;;;;;;;35.55;23.30;;;25.90;59.30;;;;;;7368075;19;20470;-74
2022/07/23 11:10:48;;;;;;;33.97;22.17;;;25.60;59.50;;;;;;7368287;19;20018;-74
2022/07/23 11:13:47;;;;;;;34.80;21.55;;;25.70;59.40;;;;;;7369562;19;20026;-74
2022/07/23 11:16:24;;;;;;;38.38;22.85;;;25.70;59.90;;;;;;7367646;19;20026;-74
2022/07/23 11:19:01;;;;;;;31.80;21.48;;;25.40;60.00;;;;;;7369030;19;20091;-76
2022/07/23 11:21:51;;;;;;;34.78;21.83;;;25.60;60.20;;;;;;7388756;19;20121;-74
2022/07/23 11:24:25;;;;;;;34.88;21.10;;;25.60;60.70;;;;;;7367799;19;20093;-74
2022/07/23 11:27:12;;;;;;;33.70;20.48;;;25.60;59.00;;;;;;7368571;19;20018;-75
2022/07/23 11:29:54;;;;;;;30.48;20.50;;;25.60;59.30;;;;;;7369508;19;20029;-74
2022/07/23 11:32:42;;;;;;;30.75;20.25;;;25.70;59.30;;;;;;7366924;19;20015;-74
2022/07/23 11:35:31;;;;;;;30.80;19.77;;;25.90;58.70;;;;;;7368907;19;20011;-74
2022/07/23 11:38:08;;;;;;;31.77;19.00;;;25.90;58.70;;;;;;7368421;19;20046;-74
2022/07/23 11:40:37;;;;;;;27.80;18.30;;;26.10;58.90;;;;;;7368318;19;20021;-75
2022/07/23 11:43:07;;;;;;;39.03;21.90;;;26.20;58.00;;;;;;7368110;19;20017;-74
2022/07/23 11:45:38;;;;;;;31.63;19.80;;;26.00;58.20;;;;;;7387327;19;20612;-74
2022/07/23 11:48:09;;;;;;;29.50;19.15;;;26.00;58.80;;;;;;7365676;19;20254;-74
2022/07/23 11:50:41;;;;;;;28.65;18.85;;;26.00;58.70;;;;;;7367161;19;20018;-76
2022/07/23 11:53:09;;;;;;;26.27;17.30;;;26.00;58.70;;;;;;7369467;19;20033;-76
2022/07/23 11:55:38;;;;;;;30.30;17.92;;;26.10;58.60;;;;;;7369181;19;20022;-76
2022/07/23 11:58:07;;;;;;;25.65;18.02;;;26.20;58.10;;;;;;7367827;19;20337;-75
2022/07/23 12:00:36;;;;;;;24.98;16.88;;;26.30;57.50;;;;;;7392068;19;20062;-75
2022/07/23 12:03:07;;;;;;;25.25;16.42;;;26.30;57.30;;;;;;7369529;19;20031;-76
2022/07/23 12:05:37;;;;;;;24.30;16.97;;;26.40;57.30;;;;;;7368752;19;20022;-75
2022/07/23 12:08:10;;;;;;;22.75;15.63;;;26.50;57.20;;;;;;7370229;19;20163;-75
2022/07/23 12:10:41;;;;;;;24.13;15.07;;;26.40;57.00;;;;;;7370964;19;20015;-76
2022/07/23 12:13:12;;;;;;;26.85;16.90;;;26.50;57.40;;;;;;7368714;19;20089;-77
2022/07/23 12:15:41;;;;;;;;;;;26.60;57.30;;;;;;7367164;19;20022;-77
2022/07/23 12:18:12;;;;;;;22.33;14.57;;;26.70;56.60;;;;;;7389459;19;19956;-75
2022/07/23 12:20:44;;;;;;;23.17;13.75;;;26.60;56.30;;;;;;7365741;19;20028;-75
2022/07/23 12:23:17;;;;;;;18.80;13.93;;;26.70;55.90;;;;;;7367816;19;20082;-76
2022/07/23 12:25:48;;;;;;;25.10;13.27;;;26.70;55.60;;;;;;7367298;19;20060;-76
2022/07/23 12:28:19;;;;;;;21.85;14.70;;;26.90;55.30;;;;;;7372179;19;20027;-76
2022/07/23 12:30:48;;;;;;;;;;;26.80;55.40;;;;;;7377721;19;20021;-77
2022/07/23 12:33:25;;;;;;;20.15;13.10;;;26.80;55.40;;;;;;7397260;19;19974;-77
2022/07/23 12:35:55;;;;;;;18.75;12.75;;;26.60;55.60;;;;;;7375887;19;20077;-77
2022/07/23 12:38:29;;;;;;;19.45;13.00;;;26.70;55.80;;;;;;7375872;19;20695;-77
2022/07/23 12:40:59;;;;;;;24.13;14.00;;;26.70;55.50;;;;;;7376879;19;20019;-77
2022/07/23 12:43:30;;;;;;;22.70;14.73;;;26.80;55.10;;;;;;7374036;19;20011;-77
2022/07/23 12:46:06;;;;;;;23.30;14.63;;;26.80;55.10;;;;;;7374480;19;20430;-75
2022/07/23 12:48:36;;;;;;;19.00;13.77;;;26.70;55.40;;;;;;7398099;19;20023;-76
2022/07/23 12:51:06;;;;;;;21.08;14.57;;;26.60;55.80;;;;;;7377584;19;20070;-76
2022/07/23 12:53:42;;;;;;;23.30;16.00;;;26.60;56.60;;;;;;7374907;19;20023;-76
2022/07/23 12:56:13;;;;;;;24.52;14.80;;;26.40;57.00;;;;;;7376936;19;20094;-76